< < Back
Terminal Aerodrome Forecast


Current Version              Previous Versions:   1  2  3  4  5  6  7  8  9  

Terminal Aerodrome Forecast

182
FTUS42 KTAE 212300
TAFTLH
TAF
KTLH 212332Z 2200/2224 06004KT 5SM -RA BR OVC005
     FM220400 08003KT 3SM -RA BR OVC004
     FM220600 07004KT 1SM -RA BR OVC002
     FM221400 09004KT 3SM -DZ BR OVC005
     FM221800 12005KT P6SM OVC008=

Latest METAR

026
SAUS80 KWBC 230000
MTRTLH
METAR KTLH 222353Z 12003KT 1/4SM FG VV002 17/16 A2987 RMK AO2 SFC VIS
1/2 SLP114 60000 T01720156 10183 20150 53005 $


USA.gov is the U.S. government's official web portal to all federal, state and local government web resources and services.